Time;durP1;ratioP1;P1;durP2;ratioP2;P2;SDS_P1;SDS_P2;PMS_P1;PMS_P2;Temp;Humidity;BMP_temperature;BMP_pressure;BME280_temperature;BME280_humidity;BME280_pressure;Samples;Min_cycle;Max_cycle;Signal;HPM_P1;HPM_P2
2022/05/31 00:02:09;;;;;;;85.65;38.67;;;15.90;99.90;;;;;;5053217;28;20096;-77
2022/05/31 00:04:35;;;;;;;82.80;37.95;;;15.90;99.90;;;;;;5053543;28;20021;-76
2022/05/31 00:07:01;;;;;;;81.22;38.03;;;16.00;99.90;;;;;;5053154;28;20052;-78
2022/05/31 00:09:27;;;;;;;80.80;37.38;;;16.00;99.90;;;;;;5053188;28;20036;-77
2022/05/31 00:11:54;;;;;;;81.05;39.03;;;16.00;99.90;;;;;;5053372;28;20463;-77
2022/05/31 00:14:20;;;;;;;77.05;38.30;;;16.00;99.90;;;;;;5053087;28;20017;-76
2022/05/31 00:16:47;;;;;;;82.85;39.38;;;16.00;99.90;;;;;;5053787;28;20028;-77
2022/05/31 00:19:14;;;;;;;80.97;39.72;;;16.00;99.90;;;;;;5057157;28;20021;-76
2022/05/31 00:21:51;;;;;;;78.45;38.00;;;16.00;99.90;;;;;;5056552;28;20017;-77
2022/05/31 00:24:19;;;;;;;74.05;37.67;;;16.00;99.90;;;;;;5056764;28;20104;-78
2022/05/31 00:26:46;;;;;;;78.90;39.13;;;16.00;99.90;;;;;;5056708;28;20471;-76
2022/05/31 00:29:13;;;;;;;80.93;39.33;;;16.00;99.90;;;;;;5056658;28;20093;-79
2022/05/31 00:31:45;;;;;;;71.65;37.80;;;16.00;99.90;;;;;;5055409;28;20021;-77
2022/05/31 00:34:12;;;;;;;77.75;38.97;;;16.00;99.90;;;;;;5055360;28;20405;-78
2022/05/31 00:36:40;;;;;;;81.35;37.97;;;16.00;99.90;;;;;;5056588;28;20021;-79
2022/05/31 00:39:07;;;;;;;73.93;37.60;;;16.10;99.90;;;;;;5056487;28;20021;-78
2022/05/31 00:41:34;;;;;;;76.65;36.92;;;16.10;99.90;;;;;;5056593;28;20021;-78
2022/05/31 00:44:03;;;;;;;68.82;36.28;;;16.10;99.90;;;;;;5056396;28;20453;-77
2022/05/31 00:46:53;;;;;;;71.03;35.92;;;16.10;99.90;;;;;;5055373;28;20028;-78
2022/05/31 00:49:36;;;;;;;67.40;34.83;;;16.20;99.90;;;;;;5056537;28;20029;-77
2022/05/31 00:52:12;;;;;;;71.95;35.92;;;16.20;99.90;;;;;;5054990;28;20032;-78
2022/05/31 00:54:43;;;;;;;67.70;35.90;;;16.20;99.90;;;;;;5056281;28;20017;-77
2022/05/31 00:57:11;;;;;;;68.63;35.42;;;16.20;99.90;;;;;;5056308;28;20154;-78
2022/05/31 00:59:43;;;;;;;69.32;35.80;;;16.20;99.90;;;;;;5056404;28;20090;-77
2022/05/31 01:02:09;;;;;;;;;;;16.20;99.90;;;;;;5056927;28;20017;-78
2022/05/31 01:04:41;;;;;;;69.80;34.55;;;16.20;99.90;;;;;;5056363;28;19910;-77
2022/05/31 01:07:08;;;;;;;60.00;33.53;;;16.20;99.90;;;;;;5056630;28;20029;-76
2022/05/31 01:09:34;;;;;;;63.00;33.47;;;16.20;99.90;;;;;;5055916;28;20040;-78
2022/05/31 01:12:02;;;;;;;67.88;35.53;;;16.20;99.90;;;;;;5055067;28;20024;-76
2022/05/31 01:14:28;;;;;;;66.95;37.15;;;16.20;99.90;;;;;;5055930;28;20025;-78
2022/05/31 01:16:57;;;;;;;65.45;35.58;;;16.20;99.90;;;;;;5055637;28;20036;-76
2022/05/31 01:22:08;;;;;;;67.10;35.75;;;16.10;99.90;;;;;;5056058;28;20079;-77
2022/05/31 01:24:44;;;;;;;63.30;34.78;;;16.10;99.90;;;;;;5055430;28;20025;-76
2022/05/31 01:27:22;;;;;;;62.88;33.92;;;16.10;99.90;;;;;;5055454;28;20025;-76
2022/05/31 01:29:49;;;;;;;61.70;34.53;;;16.20;99.90;;;;;;5055936;28;20056;-77
2022/05/31 01:32:15;;;;;;;63.17;33.67;;;16.20;99.90;;;;;;5055207;28;20028;-77
2022/05/31 01:35:06;;;;;;;57.17;33.72;;;16.20;99.90;;;;;;5056196;28;20375;-77
2022/05/31 01:37:51;;;;;;;62.17;33.92;;;16.20;99.90;;;;;;5055800;28;20083;-78
2022/05/31 01:40:27;;;;;;;61.15;33.95;;;16.20;99.90;;;;;;5055699;28;20029;-77
2022/05/31 01:42:52;;;;;;;55.30;32.97;;;16.20;99.90;;;;;;5055416;28;20499;-77
2022/05/31 01:45:21;;;;;;;57.83;34.38;;;16.30;99.90;;;;;;5053967;28;20047;-77
2022/05/31 01:47:47;;;;;;;63.20;33.55;;;16.20;99.90;;;;;;5054499;28;20057;-79
2022/05/31 01:50:17;;;;;;;66.55;34.38;;;16.20;99.90;;;;;;5055178;28;20363;-77
2022/05/31 01:52:45;;;;;;;62.17;35.85;;;16.20;99.90;;;;;;5055239;28;20017;-78
2022/05/31 01:55:11;;;;;;;62.90;34.00;;;16.20;99.90;;;;;;5054082;28;20027;-78
2022/05/31 01:57:39;;;;;;;66.90;35.13;;;16.20;99.90;;;;;;5055074;28;20059;-76
2022/05/31 02:00:11;;;;;;;61.22;34.03;;;16.10;99.90;;;;;;5054605;28;20082;-77
2022/05/31 02:02:37;;;;;;;67.38;36.05;;;16.10;99.90;;;;;;5055197;28;20013;-78
2022/05/31 02:05:03;;;;;;;63.50;35.22;;;16.00;99.90;;;;;;5053538;28;20017;-77
2022/05/31 02:07:30;;;;;;;61.95;35.92;;;16.10;99.90;;;;;;5055086;28;20021;-78
2022/05/31 02:09:57;;;;;;;65.43;36.30;;;16.10;99.90;;;;;;5054085;28;20359;-77
2022/05/31 02:12:27;;;;;;;66.15;34.58;;;16.10;99.90;;;;;;5053406;28;20025;-79
2022/05/31 02:14:52;;;;;;;61.85;34.10;;;16.10;99.90;;;;;;5055234;28;20459;-79
2022/05/31 02:17:18;;;;;;;65.93;34.33;;;16.10;99.90;;;;;;5054655;28;20056;-78
2022/05/31 02:19:44;;;;;;;68.45;33.97;;;16.10;99.90;;;;;;5054506;28;20059;-77
2022/05/31 02:22:14;;;;;;;66.28;33.35;;;16.10;99.90;;;;;;5054885;28;20025;-77
2022/05/31 02:24:40;;;;;;;62.47;34.08;;;16.10;99.90;;;;;;5054773;28;20075;-78
2022/05/31 02:27:07;;;;;;;53.35;32.80;;;16.20;99.90;;;;;;5054398;28;20019;-77
2022/05/31 02:29:35;;;;;;;69.13;34.03;;;16.20;99.90;;;;;;5054423;28;20363;-77
2022/05/31 02:32:05;;;;;;;53.55;32.45;;;16.20;99.90;;;;;;5054917;28;20078;-78
2022/05/31 02:34:35;;;;;;;59.90;32.13;;;16.20;99.90;;;;;;5054037;28;20025;-77
2022/05/31 02:37:00;;;;;;;53.20;31.77;;;16.20;99.90;;;;;;5054888;28;20017;-78
2022/05/31 02:39:26;;;;;;;54.55;31.90;;;16.10;99.90;;;;;;5053716;28;20516;-78
2022/05/31 02:41:52;;;;;;;58.38;31.70;;;16.10;99.90;;;;;;5053909;28;20067;-77
2022/05/31 02:44:19;;;;;;;56.33;32.67;;;16.10;99.90;;;;;;5054449;28;20096;-77
2022/05/31 02:46:45;;;;;;;56.05;31.83;;;16.10;99.90;;;;;;5054687;28;20039;-78
2022/05/31 02:49:11;;;;;;;55.83;31.42;;;16.10;99.90;;;;;;5054360;28;20024;-79
2022/05/31 02:51:41;;;;;;;44.33;31.58;;;16.10;99.90;;;;;;5054147;28;20032;-77
2022/05/31 02:54:08;;;;;;;48.75;31.00;;;16.10;99.90;;;;;;5053963;28;20012;-77
2022/05/31 02:56:34;;;;;;;50.60;29.75;;;16.10;99.90;;;;;;5054292;28;20013;-78
2022/05/31 02:58:59;;;;;;;48.00;31.15;;;16.10;99.90;;;;;;5053890;28;20036;-77
2022/05/31 03:01:31;;;;;;;51.33;31.75;;;16.10;99.90;;;;;;5054005;28;20021;-79
2022/05/31 03:03:57;;;;;;;55.30;33.05;;;16.10;99.90;;;;;;5052728;28;20447;-77
2022/05/31 03:06:23;;;;;;;55.10;33.80;;;16.10;99.90;;;;;;5054077;28;20025;-79
2022/05/31 03:08:50;;;;;;;57.92;33.15;;;16.10;99.90;;;;;;5053550;28;20024;-76
2022/05/31 03:11:43;;;;;;;58.33;33.78;;;16.10;99.90;;;;;;5053760;28;20021;-77
2022/05/31 03:14:37;;;;;;;65.10;35.65;;;16.00;99.90;;;;;;5051137;28;20463;-78
2022/05/31 03:17:35;;;;;;;67.30;36.40;;;15.90;99.90;;;;;;5053192;28;20067;-77
2022/05/31 03:20:09;;;;;;;60.08;36.42;;;15.90;99.90;;;;;;5053953;28;20025;-76
2022/05/31 03:22:44;;;;;;;71.35;38.42;;;15.90;99.90;;;;;;5052307;28;20028;-78
2022/05/31 03:25:20;;;;;;;67.45;37.85;;;15.90;99.90;;;;;;5053861;28;20034;-78
2022/05/31 03:27:47;;;;;;;62.15;36.20;;;16.00;99.90;;;;;;5053620;28;20481;-78
2022/05/31 03:30:13;;;;;;;62.72;37.22;;;15.90;99.90;;;;;;5053471;28;20092;-78
2022/05/31 03:32:40;;;;;;;64.22;37.35;;;16.00;99.90;;;;;;5052188;28;20075;-77
2022/05/31 03:35:07;;;;;;;64.30;39.28;;;16.00;99.90;;;;;;5053746;28;20067;-77
2022/05/31 03:37:33;;;;;;;71.93;39.42;;;16.00;99.90;;;;;;5053910;28;20017;-77
2022/05/31 03:39:59;;;;;;;73.45;40.33;;;15.90;99.90;;;;;;5053681;28;20025;-78
2022/05/31 03:42:25;;;;;;;74.75;40.92;;;16.00;99.90;;;;;;5053391;28;20031;-78
2022/05/31 03:44:54;;;;;;;77.90;43.00;;;15.90;99.90;;;;;;5052093;28;20021;-77
2022/05/31 03:47:20;;;;;;;81.72;43.70;;;15.90;99.90;;;;;;5052387;28;20048;-78
2022/05/31 03:49:45;;;;;;;79.75;43.33;;;15.90;99.90;;;;;;5053896;28;20064;-79
2022/05/31 03:52:11;;;;;;;90.70;44.78;;;15.90;99.90;;;;;;5056444;28;20089;-78
2022/05/31 03:54:37;;;;;;;90.28;43.92;;;15.90;99.90;;;;;;5057673;28;20028;-78
2022/05/31 03:57:07;;;;;;;82.43;45.05;;;16.00;99.90;;;;;;5055988;28;20032;-78
2022/05/31 03:59:37;;;;;;;90.60;46.10;;;16.00;99.90;;;;;;5056684;28;20029;-79
2022/05/31 04:02:04;;;;;;;97.68;46.58;;;15.90;99.90;;;;;;5057558;28;20066;-78
2022/05/31 04:04:30;;;;;;;89.95;46.75;;;15.80;99.90;;;;;;5057378;28;20013;-77
2022/05/31 04:06:56;;;;;;;95.65;45.88;;;15.80;99.90;;;;;;5057434;28;20467;-78
2022/05/31 04:09:22;;;;;;;94.75;47.53;;;15.80;99.90;;;;;;5055738;28;20123;-79
2022/05/31 04:11:47;;;;;;;100.88;47.60;;;15.80;99.90;;;;;;5056673;28;20341;-78
2022/05/31 04:14:13;;;;;;;99.70;47.95;;;15.90;99.90;;;;;;5057262;28;20099;-78
2022/05/31 04:16:39;;;;;;;102.03;48.85;;;15.90;99.90;;;;;;5056654;28;20024;-77
2022/05/31 04:19:04;;;;;;;98.00;48.53;;;15.90;99.90;;;;;;5056925;28;20129;-77
2022/05/31 04:21:30;;;;;;;96.68;48.78;;;15.90;99.90;;;;;;5057493;28;20052;-78
2022/05/31 04:23:59;;;;;;;94.97;47.78;;;15.90;99.90;;;;;;5055872;28;20025;-77
2022/05/31 04:26:30;;;;;;;100.82;49.78;;;16.00;99.90;;;;;;5057016;28;20349;-78
2022/05/31 04:28:56;;;;;;;107.28;50.35;;;16.00;99.90;;;;;;5057223;28;20100;-77
2022/05/31 04:31:22;;;;;;;108.20;50.85;;;15.90;99.90;;;;;;5056723;28;20029;-79
2022/05/31 04:33:48;;;;;;;104.72;52.25;;;16.00;99.90;;;;;;5056386;28;20028;-77
2022/05/31 04:36:17;;;;;;;99.35;51.22;;;16.00;99.90;;;;;;5055548;28;20021;-78
2022/05/31 04:38:43;;;;;;;105.70;49.28;;;15.90;99.90;;;;;;5056234;28;20036;-77
2022/05/31 04:41:29;;;;;;;101.25;51.00;;;16.00;99.90;;;;;;5055204;28;20025;-78
2022/05/31 04:43:58;;;;;;;98.00;50.38;;;16.00;99.90;;;;;;5055890;28;20040;-78
2022/05/31 04:46:27;;;;;;;95.35;49.88;;;15.90;99.90;;;;;;5055835;28;20115;-77
2022/05/31 04:48:53;;;;;;;88.95;48.58;;;16.00;99.90;;;;;;5055754;28;20367;-78
2022/05/31 04:51:20;;;;;;;104.78;50.22;;;16.00;99.90;;;;;;5055586;28;20440;-79
2022/05/31 04:53:46;;;;;;;94.82;48.13;;;16.10;99.90;;;;;;5055743;28;20024;-79
2022/05/31 04:56:20;;;;;;;88.70;46.92;;;16.10;99.90;;;;;;5056425;28;20021;-78
2022/05/31 04:58:47;;;;;;;90.28;47.53;;;16.10;99.90;;;;;;5056596;28;20159;-77
2022/05/31 05:01:13;;;;;;;95.78;49.83;;;16.10;99.90;;;;;;5056165;28;20017;-78
2022/05/31 05:03:41;;;;;;;87.07;47.88;;;16.20;99.90;;;;;;5055241;28;20058;-78
2022/05/31 05:06:09;;;;;;;108.05;50.60;;;16.10;99.90;;;;;;5055091;28;20027;-77
2022/05/31 05:08:36;;;;;;;101.72;51.60;;;16.20;99.90;;;;;;5056006;28;20064;-77
2022/05/31 05:11:04;;;;;;;93.38;49.22;;;16.10;99.90;;;;;;5055962;28;20497;-77
2022/05/31 05:13:31;;;;;;;92.63;48.15;;;16.20;99.90;;;;;;5054979;28;20025;-77
2022/05/31 05:15:59;;;;;;;94.43;48.63;;;16.20;99.90;;;;;;5055411;28;20017;-78
2022/05/31 05:18:25;;;;;;;98.10;49.20;;;16.20;99.90;;;;;;5054424;28;20055;-78
2022/05/31 05:20:51;;;;;;;99.05;50.05;;;16.20;99.90;;;;;;5055864;28;20100;-79
2022/05/31 05:23:17;;;;;;;98.20;48.38;;;16.20;99.90;;;;;;5055979;28;20100;-78
2022/05/31 05:25:54;;;;;;;95.68;48.58;;;16.10;99.90;;;;;;5055061;28;20352;-76
2022/05/31 05:31:05;;;;;;;89.18;44.38;;;16.10;99.90;;;;;;5055853;28;20032;-78
2022/05/31 05:33:32;;;;;;;70.40;39.67;;;16.20;99.90;;;;;;5054615;28;20020;-76
2022/05/31 05:35:58;;;;;;;75.45;39.38;;;16.20;99.90;;;;;;5055722;28;20056;-78
2022/05/31 05:38:24;;;;;;;73.68;38.08;;;16.20;99.90;;;;;;5055405;28;20024;-76
2022/05/31 05:40:50;;;;;;;71.22;37.08;;;16.30;99.90;;;;;;5055728;28;20048;-77
2022/05/31 05:43:16;;;;;;;74.50;36.53;;;16.40;99.90;;;;;;5054795;28;20025;-78
2022/05/31 05:45:42;;;;;;;69.68;36.05;;;16.40;99.90;;;;;;5055594;28;20021;-76
2022/05/31 05:48:08;;;;;;;76.25;36.72;;;16.40;99.90;;;;;;5055089;28;20017;-78
2022/05/31 05:50:36;;;;;;;64.70;32.55;;;16.40;99.90;;;;;;5054920;28;20100;-77
2022/05/31 05:53:08;;;;;;;61.00;33.15;;;16.40;99.90;;;;;;5055196;28;20017;-76
2022/05/31 05:55:36;;;;;;;66.18;33.60;;;16.50;99.90;;;;;;5055460;28;20020;-75
2022/05/31 05:58:03;;;;;;;54.30;29.80;;;16.50;99.90;;;;;;5055308;28;20028;-75
2022/05/31 06:00:30;;;;;;;54.97;31.15;;;16.60;99.90;;;;;;5055306;28;20029;-76
2022/05/31 06:03:11;;;;;;;57.20;30.17;;;16.80;99.90;;;;;;5054914;28;20023;-76
2022/05/31 06:05:38;;;;;;;52.60;28.30;;;17.10;99.90;;;;;;5055425;28;20452;-77
2022/05/31 06:08:15;;;;;;;49.95;27.17;;;17.30;99.90;;;;;;5053705;28;20017;-75
2022/05/31 06:10:55;;;;;;;51.92;28.05;;;17.40;99.90;;;;;;5054938;28;20024;-76
2022/05/31 06:13:26;;;;;;;50.60;25.70;;;17.50;99.90;;;;;;5055076;28;20025;-75
2022/05/31 06:15:55;;;;;;;54.17;26.00;;;17.50;99.90;;;;;;5055343;28;20013;-75
2022/05/31 06:18:26;;;;;;;54.22;25.58;;;17.50;99.90;;;;;;5054860;28;20045;-76
2022/05/31 06:20:58;;;;;;;47.90;25.35;;;17.50;99.90;;;;;;5054533;28;20028;-75
2022/05/31 06:23:24;;;;;;;50.10;26.48;;;17.50;99.90;;;;;;5054875;28;20017;-75
2022/05/31 06:25:50;;;;;;;53.05;27.50;;;17.50;99.90;;;;;;5054777;28;20082;-75
2022/05/31 06:28:16;;;;;;;52.15;27.83;;;17.60;99.90;;;;;;5054544;28;20013;-75
2022/05/31 06:30:42;;;;;;;42.63;26.30;;;17.60;99.90;;;;;;5054783;28;20028;-75
2022/05/31 06:33:07;;;;;;;50.55;25.45;;;17.60;99.90;;;;;;5053999;28;20021;-75
2022/05/31 06:35:34;;;;;;;52.00;26.98;;;17.60;99.90;;;;;;5054025;28;20419;-74
2022/05/31 06:38:00;;;;;;;51.17;27.05;;;17.50;99.90;;;;;;5054417;28;20025;-75
2022/05/31 06:40:26;;;;;;;44.90;27.42;;;17.40;99.90;;;;;;5054561;28;20055;-75
2022/05/31 06:42:52;;;;;;;54.03;27.95;;;17.30;99.90;;;;;;5054250;28;20100;-75
2022/05/31 06:45:17;;;;;;;52.25;29.13;;;17.30;99.90;;;;;;5053291;28;20102;-76
2022/05/31 06:47:43;;;;;;;53.83;30.17;;;17.30;99.90;;;;;;5054389;28;20021;-76
2022/05/31 06:50:09;;;;;;;50.97;31.27;;;17.30;99.90;;;;;;5054370;28;20029;-75
2022/05/31 06:58:03;;;;;;;57.63;31.05;;;17.20;99.90;;;;;;5053368;28;20052;-78
2022/05/31 07:00:29;;;;;;;52.75;32.35;;;17.20;99.90;;;;;;5053308;28;20064;-77
2022/05/31 07:02:55;;;;;;;56.60;32.40;;;17.20;99.90;;;;;;5054200;28;20447;-76
2022/05/31 07:05:21;;;;;;;56.05;33.75;;;17.10;99.90;;;;;;5053961;28;20103;-77
2022/05/31 07:07:51;;;;;;;64.15;34.25;;;17.10;99.90;;;;;;5053546;28;20059;-76
2022/05/31 07:10:16;;;;;;;69.18;34.67;;;17.10;99.90;;;;;;5053777;28;20025;-77
2022/05/31 07:12:43;;;;;;;61.70;36.92;;;17.00;99.90;;;;;;5054133;28;20032;-76
2022/05/31 07:15:10;;;;;;;64.00;36.38;;;17.00;99.90;;;;;;5053712;28;20021;-76
2022/05/31 07:17:36;;;;;;;68.10;37.42;;;16.90;99.90;;;;;;5053835;28;20131;-78
2022/05/31 07:20:06;;;;;;;67.82;37.25;;;16.90;99.90;;;;;;5053235;28;20060;-76
2022/05/31 07:22:32;;;;;;;72.97;36.83;;;16.90;99.90;;;;;;5054094;28;20036;-77
2022/05/31 07:24:58;;;;;;;69.00;39.53;;;16.90;99.90;;;;;;5053882;28;20017;-77
2022/05/31 07:27:24;;;;;;;69.97;40.78;;;17.00;99.90;;;;;;5051919;28;20021;-77
2022/05/31 07:29:50;;;;;;;77.10;40.40;;;16.90;99.90;;;;;;5054094;28;20478;-77
2022/05/31 07:32:16;;;;;;;78.20;43.35;;;16.90;99.90;;;;;;5053555;28;20020;-78
2022/05/31 07:34:42;;;;;;;83.68;44.20;;;16.90;99.90;;;;;;5052163;28;20021;-79
2022/05/31 07:37:10;;;;;;;78.50;40.88;;;16.90;99.90;;;;;;5053748;28;20027;-78
2022/05/31 07:39:36;;;;;;;77.93;40.88;;;16.90;99.90;;;;;;5053857;28;20028;-81
2022/05/31 07:42:02;;;;;;;87.47;43.53;;;16.90;99.90;;;;;;5052139;28;20071;-81
2022/05/31 07:44:28;;;;;;;72.68;40.00;;;17.00;99.90;;;;;;5053718;28;20025;-80
2022/05/31 07:46:54;;;;;;;80.85;42.90;;;16.90;99.90;;;;;;5052586;28;20029;-83
2022/05/31 07:49:21;;;;;;;81.72;41.38;;;17.00;99.90;;;;;;5053331;28;20020;-83
2022/05/31 07:51:47;;;;;;;97.68;45.03;;;17.00;99.90;;;;;;5053933;28;20355;-83
2022/05/31 07:54:13;;;;;;;90.30;42.92;;;17.00;99.90;;;;;;5053781;28;20025;-82
2022/05/31 07:56:38;;;;;;;95.47;46.95;;;17.00;99.90;;;;;;5052036;28;20028;-85
2022/05/31 07:59:05;;;;;;;95.07;46.70;;;16.90;99.90;;;;;;5053466;28;20021;-83
2022/05/31 08:01:30;;;;;;;96.55;47.67;;;17.00;99.90;;;;;;5053813;28;20036;-84
2022/05/31 08:03:56;;;;;;;99.00;48.30;;;17.00;99.90;;;;;;5053540;28;20021;-82
2022/05/31 08:06:27;;;;;;;96.03;46.90;;;17.00;99.90;;;;;;5052162;28;20115;-81
2022/05/31 08:08:53;;;;;;;97.43;47.33;;;16.90;99.90;;;;;;5053308;28;20036;-83
2022/05/31 08:11:27;;;;;;;98.03;48.50;;;16.90;99.90;;;;;;5053213;28;20055;-82
2022/05/31 08:13:53;;;;;;;106.78;51.05;;;16.80;99.90;;;;;;5053595;28;20028;-81
2022/05/31 08:16:24;;;;;;;106.75;47.72;;;16.80;99.90;;;;;;5052070;28;20341;-82
2022/05/31 08:18:50;;;;;;;104.93;48.25;;;16.80;99.90;;;;;;5052136;28;20044;-82
2022/05/31 08:21:19;;;;;;;91.45;46.78;;;16.70;99.90;;;;;;5053607;28;20025;-83
2022/05/31 08:23:45;;;;;;;92.88;48.20;;;16.60;99.90;;;;;;5053064;28;20047;-81
2022/05/31 08:26:11;;;;;;;93.03;46.13;;;16.60;99.90;;;;;;5053292;28;20021;-80
2022/05/31 08:28:38;;;;;;;94.50;46.13;;;16.70;99.90;;;;;;5053626;28;20336;-80
2022/05/31 08:31:06;;;;;;;94.25;47.45;;;16.70;99.90;;;;;;5051658;28;20021;-80
2022/05/31 08:33:33;;;;;;;89.50;46.05;;;16.70;99.90;;;;;;5052986;28;20017;-80
2022/05/31 08:35:59;;;;;;;87.40;45.45;;;16.70;99.90;;;;;;5053277;28;20017;-80
2022/05/31 08:38:25;;;;;;;84.53;46.40;;;16.70;99.90;;;;;;5054184;28;20112;-80
2022/05/31 08:41:12;;;;;;;90.78;47.35;;;16.80;99.90;;;;;;5056584;28;20104;-81
2022/05/31 08:43:52;;;;;;;89.55;48.13;;;16.90;99.90;;;;;;5056932;28;20021;-81
2022/05/31 08:46:43;;;;;;;84.38;48.15;;;17.00;99.90;;;;;;5056752;28;20067;-81
2022/05/31 08:49:09;;;;;;;80.15;47.28;;;17.00;99.90;;;;;;5055507;28;20021;-81
2022/05/31 08:51:54;;;;;;;82.90;45.78;;;17.10;99.90;;;;;;5056598;28;20442;-80
2022/05/31 08:57:29;;;;;;;79.30;45.90;;;17.20;99.90;;;;;;5056232;28;20032;-77
2022/05/31 08:59:57;;;;;;;73.78;44.50;;;17.30;99.90;;;;;;5056345;28;20032;-79
2022/05/31 09:02:43;;;;;;;77.53;47.13;;;17.50;99.90;;;;;;5055077;28;20028;-79
2022/05/31 09:05:14;;;;;;;73.70;43.08;;;17.60;99.90;;;;;;5056064;28;20025;-80
2022/05/31 09:07:50;;;;;;;69.07;44.53;;;17.70;99.90;;;;;;5056423;28;20028;-80
2022/05/31 09:10:25;;;;;;;66.20;40.60;;;17.80;99.90;;;;;;5054885;28;20040;-80
2022/05/31 09:13:09;;;;;;;67.20;41.40;;;18.00;99.90;;;;;;5055662;28;20028;-79
2022/05/31 09:15:37;;;;;;;64.15;40.17;;;18.20;99.90;;;;;;5056464;28;20043;-80
2022/05/31 09:18:40;;;;;;;62.55;38.28;;;18.60;99.90;;;;;;5055987;28;20033;-79
2022/05/31 09:21:26;;;;;;;63.25;38.33;;;18.80;99.90;;;;;;5055515;28;20044;-79
2022/05/31 09:23:53;;;;;;;52.80;34.53;;;19.00;99.90;;;;;;5056084;28;20077;-78
2022/05/31 09:26:47;;;;;;;53.28;35.88;;;19.00;99.90;;;;;;5054362;28;20360;-80
2022/05/31 09:29:15;;;;;;;54.63;35.55;;;19.10;99.90;;;;;;5055805;28;20029;-79
2022/05/31 09:32:02;;;;;;;53.47;35.35;;;19.30;99.90;;;;;;5054594;28;20029;-79
2022/05/31 09:34:42;;;;;;;45.92;30.65;;;19.70;99.90;;;;;;5055362;28;20355;-78
2022/05/31 09:37:24;;;;;;;44.72;31.15;;;19.80;99.90;;;;;;5055365;28;20040;-77
2022/05/31 09:39:56;;;;;;;;;;;19.90;99.90;;;;;;5054385;28;20471;-77
2022/05/31 09:42:27;;;;;;;42.03;30.35;;;20.20;99.90;;;;;;5055767;28;19995;-77
2022/05/31 09:45:07;;;;;;;39.50;28.35;;;20.20;99.90;;;;;;5055776;28;20033;-78
2022/05/31 09:47:34;;;;;;;42.78;29.15;;;20.30;99.90;;;;;;5053842;28;20024;-76
2022/05/31 09:50:00;;;;;;;46.85;31.33;;;20.30;99.90;;;;;;5054939;28;20340;-76
2022/05/31 09:52:47;;;;;;;41.72;26.95;;;20.30;99.90;;;;;;5054020;28;20493;-76
2022/05/31 09:58:12;;;;;;;35.90;24.27;;;20.60;99.90;;;;;;5055003;28;20051;-77
2022/05/31 10:01:20;;;;;;;32.00;22.92;;;20.70;99.90;;;;;;5055561;28;20051;-75
2022/05/31 10:03:51;;;;;;;34.28;23.52;;;21.00;99.90;;;;;;5055101;28;20025;-78
2022/05/31 10:06:26;;;;;;;38.72;27.00;;;21.30;99.90;;;;;;5055094;28;20052;-75
2022/05/31 10:08:54;;;;;;;28.60;22.55;;;21.30;99.90;;;;;;5054724;28;20371;-79
2022/05/31 10:11:34;;;;;;;28.10;21.17;;;21.40;99.90;;;;;;5054916;28;20056;-78
2022/05/31 10:14:06;;;;;;;31.80;22.35;;;21.20;99.90;;;;;;5055278;28;20031;-77
2022/05/31 10:16:37;;;;;;;28.73;21.60;;;21.40;99.90;;;;;;5054164;28;20017;-77
2022/05/31 10:19:08;;;;;;;28.15;21.67;;;21.60;99.90;;;;;;5054542;28;20032;-76
2022/05/31 10:21:36;;;;;;;28.13;21.27;;;;;;;;;;5054907;28;20104;-75
2022/05/31 10:24:07;;;;;;;24.63;19.80;;;;;;;;;;5054126;28;20533;-77
2022/05/31 10:26:33;;;;;;;26.58;19.75;;;;;;;;;;5054700;28;20059;-76
2022/05/31 10:29:01;;;;;;;24.80;20.15;;;;;;;;;;5054334;28;20013;-77
2022/05/31 10:31:27;;;;;;;21.65;17.48;;;;;;;;;;5054540;28;20517;-76
2022/05/31 10:33:55;;;;;;;20.25;16.83;;;;;;;;;;5054621;28;20378;-77
2022/05/31 10:36:23;;;;;;;21.95;16.05;;;;;;;;;;5053830;28;20489;-76
2022/05/31 10:38:49;;;;;;;18.67;15.23;;;;;;;;;;5054097;28;20025;-75
2022/05/31 10:41:32;;;;;;;23.58;17.58;;;;;;;;;;5054055;28;20375;-75
2022/05/31 10:43:58;;;;;;;24.83;18.23;;;;;;;;;;5053721;28;20459;-75
2022/05/31 10:46:24;;;;;;;20.90;17.17;;;;;;;;;;5054034;28;20059;-75
2022/05/31 10:48:52;;;;;;;21.77;18.70;;;;;;;;;;5052862;28;20025;-77
2022/05/31 10:51:36;;;;;;;22.95;20.02;;;;;;;;;;5053611;28;20013;-76
2022/05/31 10:54:05;;;;;;;23.88;19.15;;;;;;;;;;5054246;28;20021;-75
2022/05/31 10:56:32;;;;;;;20.45;18.42;;;;;;;;;;5053882;28;20063;-75
2022/05/31 10:59:04;;;;;;;19.25;17.23;;;;;;;;;;5053430;28;20025;-75
2022/05/31 11:01:43;;;;;;;21.17;17.55;;;;;;;;;;5053622;28;20343;-76
2022/05/31 11:04:27;;;;;;;19.15;16.70;;;;;;;;;;5053441;28;20781;-76
2022/05/31 11:07:07;;;;;;;17.98;15.32;;;;;;;;;;5054215;28;20040;-77
2022/05/31 11:12:47;;;;;;;22.17;19.58;;;;;;;;;;5053359;28;20106;-76
2022/05/31 11:15:32;;;;;;;22.98;19.55;;;;;;;;;;5054024;28;20561;-75
2022/05/31 11:17:58;;;;;;;22.27;19.92;;;;;;;;;;5051912;28;20140;-76
2022/05/31 11:20:24;;;;;;;19.58;17.52;;;;;;;;;;5052449;28;20163;-75
2022/05/31 11:23:00;;;;;;;18.42;16.52;;;;;;;;;;5053651;28;20041;-75
2022/05/31 11:25:35;;;;;;;19.70;16.15;;;;;;;;;;5053418;28;20021;-75
2022/05/31 11:28:01;;;;;;;14.65;13.07;;;;;;;;;;5053418;28;20013;-76
2022/05/31 11:30:36;;;;;;;19.00;17.00;;;;;;;;;;5053554;28;20087;-75
2022/05/31 11:33:05;;;;;;;20.65;18.55;;;;;;;;;;5053538;28;20391;-75
2022/05/31 11:35:45;;;;;;;19.65;16.70;;;;;;;;;;5053600;28;20105;-77
2022/05/31 11:38:12;;;;;;;17.08;14.40;;;;;;;;;;5053652;28;20066;-74
2022/05/31 11:40:57;;;;;;;20.90;18.30;;;;;;;;;;5053150;28;20021;-77
2022/05/31 11:43:35;;;;;;;22.88;18.38;;;;;;;;;;5053107;28;20087;-74
2022/05/31 11:46:15;;;;;;;25.55;19.10;;;;;;;;;;5053145;28;20020;-75
2022/05/31 11:48:41;;;;;;;24.60;17.13;;;;;;;;;;5053570;28;20025;-76
2022/05/31 11:51:26;;;;;;;23.40;16.55;;;;;;;;;;5053337;28;20028;-75
2022/05/31 11:54:04;;;;;;;23.00;16.92;;;;;;;;;;5052744;28;20373;-75
2022/05/31 11:56:34;;;;;;;21.27;18.60;;;;;;;;;;5052029;28;20127;-76
2022/05/31 11:59:06;;;;;;;21.77;16.95;;;;;;;;;;5052006;28;20032;-74
2022/05/31 12:01:39;;;;;;;25.10;16.33;;;;;;;;;;5053453;28;20075;-74
2022/05/31 12:04:08;;;;;;;23.77;16.80;;;;;;;;;;5053120;28;20455;-74
2022/05/31 12:06:45;;;;;;;21.27;16.30;;;;;;;;;;5053350;28;20017;-76
2022/05/31 12:09:30;;;;;;;19.42;14.60;;;;;;;;;;5053030;28;20025;-76
2022/05/31 12:12:02;;;;;;;17.60;14.68;;;;;;;;;;5054212;28;20031;-74
2022/05/31 12:14:29;;;;;;;16.60;14.90;;;;;;;;;;5055907;28;20351;-76
2022/05/31 12:16:56;;;;;;;20.00;14.05;;;;;;;;;;5056631;28;20041;-76
2022/05/31 12:19:30;;;;;;;19.02;14.30;;;;;;;;;;5057046;28;20052;-75
2022/05/31 12:22:01;;;;;;;19.73;16.30;;;;;;;;;;5055587;28;20068;-74
2022/05/31 12:24:33;;;;;;;16.42;13.80;;;;;;;;;;5057083;28;20020;-75
2022/05/31 12:27:10;;;;;;;17.73;14.45;;;;;;;;;;5055878;28;20021;-74
2022/05/31 12:29:55;;;;;;;14.38;12.88;;;;;;;;;;5057152;28;20025;-74
2022/05/31 12:32:21;;;;;;;16.38;13.88;;;;;;;;;;5056736;28;20036;-76
2022/05/31 12:34:48;;;;;;;15.52;13.45;;;;;;;;;;5056708;28;20017;-75
2022/05/31 12:37:15;;;;;;;15.25;13.75;;;;;;;;;;5056430;28;20015;-74
2022/05/31 12:39:42;;;;;;;13.85;11.70;;;;;;;;;;5056911;28;20108;-75
2022/05/31 12:42:15;;;;;;;16.05;12.52;;;;;;;;;;5056733;28;20031;-76
2022/05/31 12:44:45;;;;;;;19.05;15.00;;;;;;;;;;5056085;28;20028;-76
2022/05/31 12:47:14;;;;;;;18.08;13.30;;;;;;;;;;5056741;28;20017;-76
2022/05/31 12:49:52;;;;;;;16.48;12.07;;;;;;;;;;5056562;28;20032;-76
2022/05/31 12:52:37;;;;;;;15.45;12.45;;;;;;;;;;5056709;28;20017;-75
2022/05/31 12:55:04;;;;;;;12.50;10.85;;;;;;;;;;5054868;28;20031;-75
2022/05/31 13:00:29;;;;;;;9.73;8.65;;;;;;;;;;5056232;28;20421;-75
2022/05/31 13:02:56;;;;;;;10.48;9.35;;;;;;;;;;5055727;28;20036;-74
2022/05/31 13:05:32;;;;;;;9.63;8.63;;;;;;;;;;5056229;28;20017;-74
2022/05/31 13:08:15;;;;;;;9.98;8.85;;;;;;;;;;5054878;28;20048;-75
2022/05/31 13:21:53;;;;;;;13.30;10.35;;;;;;;;;;5055982;28;20071;-75
2022/05/31 13:24:20;;;;;;;11.98;9.80;;;;;;;;;;5054792;28;20096;-76
2022/05/31 13:26:47;;;;;;;15.60;9.43;;;;;;;;;;5055875;28;20024;-76
2022/05/31 13:29:14;;;;;;;13.32;10.55;;;;;;;;;;5055666;28;20020;-74
2022/05/31 13:31:50;;;;;;;13.32;9.70;;;;;;;;;;5055636;28;20104;-75
2022/05/31 13:34:25;;;;;;;11.65;10.40;;;;;;;;;;5055904;28;20025;-74
2022/05/31 13:36:53;;;;;;;12.30;10.75;;;;;;;;;;5056182;28;20095;-76
2022/05/31 13:39:19;;;;;;;10.55;9.55;;;;;;;;;;5055063;28;20028;-74
2022/05/31 13:41:50;;;;;;;11.20;10.10;;;;;;;;;;5055762;28;20013;-74